sensor_id;sensor_type;location;lat;lon;timestamp;temperature;humidity
76613;DHT22;65507;48.454;-2.058;2023-07-30T00:01:11;16.40;75.30
76613;DHT22;65507;48.454;-2.058;2023-07-30T00:03:36;16.40;75.20
76613;DHT22;65507;48.454;-2.058;2023-07-30T00:06:02;16.40;75.20
76613;DHT22;65507;48.454;-2.058;2023-07-30T00:08:27;16.40;75.30
76613;DHT22;65507;48.454;-2.058;2023-07-30T00:10:53;16.40;75.20
76613;DHT22;65507;48.454;-2.058;2023-07-30T00:13:21;16.40;75.20
76613;DHT22;65507;48.454;-2.058;2023-07-30T00:15:47;16.40;75.20
76613;DHT22;65507;48.454;-2.058;2023-07-30T00:18:13;16.40;75.20
76613;DHT22;65507;48.454;-2.058;2023-07-30T00:20:39;16.40;75.20
76613;DHT22;65507;48.454;-2.058;2023-07-30T00:23:04;16.40;75.20
76613;DHT22;65507;48.454;-2.058;2023-07-30T00:25:30;16.30;75.20
76613;DHT22;65507;48.454;-2.058;2023-07-30T00:27:55;16.30;75.20
76613;DHT22;65507;48.454;-2.058;2023-07-30T00:30:21;16.30;75.20
76613;DHT22;65507;48.454;-2.058;2023-07-30T00:32:46;16.30;75.20
76613;DHT22;65507;48.454;-2.058;2023-07-30T00:35:12;16.30;75.20
76613;DHT22;65507;48.454;-2.058;2023-07-30T00:37:37;16.30;75.20
76613;DHT22;65507;48.454;-2.058;2023-07-30T00:40:03;16.30;75.20
76613;DHT22;65507;48.454;-2.058;2023-07-30T00:42:29;16.30;75.30
76613;DHT22;65507;48.454;-2.058;2023-07-30T00:44:54;16.30;75.20
76613;DHT22;65507;48.454;-2.058;2023-07-30T00:47:20;16.20;75.30
76613;DHT22;65507;48.454;-2.058;2023-07-30T00:49:46;16.20;75.20
76613;DHT22;65507;48.454;-2.058;2023-07-30T00:52:12;16.20;75.20
76613;DHT22;65507;48.454;-2.058;2023-07-30T00:54:38;16.30;75.40
76613;DHT22;65507;48.454;-2.058;2023-07-30T00:57:04;16.20;75.30
76613;DHT22;65507;48.454;-2.058;2023-07-30T00:59:30;16.20;75.50
76613;DHT22;65507;48.454;-2.058;2023-07-30T01:01:55;16.20;75.30
76613;DHT22;65507;48.454;-2.058;2023-07-30T01:04:22;16.20;75.20
76613;DHT22;65507;48.454;-2.058;2023-07-30T01:06:47;16.20;75.30
76613;DHT22;65507;48.454;-2.058;2023-07-30T01:09:13;16.20;75.30
76613;DHT22;65507;48.454;-2.058;2023-07-30T01:11:38;16.20;75.30
76613;DHT22;65507;48.454;-2.058;2023-07-30T01:14:04;16.20;75.30
76613;DHT22;65507;48.454;-2.058;2023-07-30T01:16:30;16.20;76.20
76613;DHT22;65507;48.454;-2.058;2023-07-30T01:18:56;16.20;75.40
76613;DHT22;65507;48.454;-2.058;2023-07-30T01:21:24;16.20;75.30
76613;DHT22;65507;48.454;-2.058;2023-07-30T01:23:49;16.20;75.30
76613;DHT22;65507;48.454;-2.058;2023-07-30T01:26:22;16.20;75.30
76613;DHT22;65507;48.454;-2.058;2023-07-30T01:28:51;16.20;75.30
76613;DHT22;65507;48.454;-2.058;2023-07-30T01:31:19;16.20;75.30
76613;DHT22;65507;48.454;-2.058;2023-07-30T01:33:46;16.20;75.40
76613;DHT22;65507;48.454;-2.058;2023-07-30T01:36:14;16.10;75.30
76613;DHT22;65507;48.454;-2.058;2023-07-30T01:38:40;16.10;75.40
76613;DHT22;65507;48.454;-2.058;2023-07-30T01:41:07;16.00;75.40
76613;DHT22;65507;48.454;-2.058;2023-07-30T01:43:33;16.10;75.40
76613;DHT22;65507;48.454;-2.058;2023-07-30T01:45:58;16.10;75.50
76613;DHT22;65507;48.454;-2.058;2023-07-30T01:48:24;16.10;75.80
76613;DHT22;65507;48.454;-2.058;2023-07-30T01:50:50;16.10;75.70
76613;DHT22;65507;48.454;-2.058;2023-07-30T01:53:15;16.10;75.60
76613;DHT22;65507;48.454;-2.058;2023-07-30T01:55:41;16.10;75.90
76613;DHT22;65507;48.454;-2.058;2023-07-30T01:58:11;16.00;75.50
76613;DHT22;65507;48.454;-2.058;2023-07-30T02:00:37;16.00;75.50
76613;DHT22;65507;48.454;-2.058;2023-07-30T02:03:02;16.00;75.50
76613;DHT22;65507;48.454;-2.058;2023-07-30T02:05:28;16.00;75.50
76613;DHT22;65507;48.454;-2.058;2023-07-30T02:07:54;16.00;75.60
76613;DHT22;65507;48.454;-2.058;2023-07-30T02:10:19;16.00;75.60
76613;DHT22;65507;48.454;-2.058;2023-07-30T02:12:45;16.00;75.60
76613;DHT22;65507;48.454;-2.058;2023-07-30T02:15:10;16.00;75.60
76613;DHT22;65507;48.454;-2.058;2023-07-30T02:17:36;15.90;75.60
76613;DHT22;65507;48.454;-2.058;2023-07-30T02:20:01;15.90;75.70
76613;DHT22;65507;48.454;-2.058;2023-07-30T02:22:27;15.90;75.80
76613;DHT22;65507;48.454;-2.058;2023-07-30T02:24:52;15.90;75.90
76613;DHT22;65507;48.454;-2.058;2023-07-30T02:27:18;15.90;75.80
76613;DHT22;65507;48.454;-2.058;2023-07-30T02:29:43;15.90;75.70
76613;DHT22;65507;48.454;-2.058;2023-07-30T02:32:09;15.90;75.70
76613;DHT22;65507;48.454;-2.058;2023-07-30T02:34:34;15.90;75.70
76613;DHT22;65507;48.454;-2.058;2023-07-30T02:37:00;15.90;75.70
76613;DHT22;65507;48.454;-2.058;2023-07-30T02:39:25;15.80;76.00
76613;DHT22;65507;48.454;-2.058;2023-07-30T02:41:51;15.80;75.60
76613;DHT22;65507;48.454;-2.058;2023-07-30T02:44:17;15.80;75.70
76613;DHT22;65507;48.454;-2.058;2023-07-30T02:46:42;15.80;75.70
76613;DHT22;65507;48.454;-2.058;2023-07-30T02:49:08;15.80;75.70
76613;DHT22;65507;48.454;-2.058;2023-07-30T02:51:34;15.90;75.70
76613;DHT22;65507;48.454;-2.058;2023-07-30T02:54:03;15.90;75.50
76613;DHT22;65507;48.454;-2.058;2023-07-30T02:56:29;15.90;75.40
76613;DHT22;65507;48.454;-2.058;2023-07-30T02:58:54;15.90;75.50
76613;DHT22;65507;48.454;-2.058;2023-07-30T03:01:20;15.90;75.40
76613;DHT22;65507;48.454;-2.058;2023-07-30T03:03:45;16.00;75.40
76613;DHT22;65507;48.454;-2.058;2023-07-30T03:06:11;16.00;75.50
76613;DHT22;65507;48.454;-2.058;2023-07-30T03:08:36;16.00;75.30
76613;DHT22;65507;48.454;-2.058;2023-07-30T03:11:02;16.00;75.20
76613;DHT22;65507;48.454;-2.058;2023-07-30T03:13:28;16.10;75.30
76613;DHT22;65507;48.454;-2.058;2023-07-30T03:15:53;16.10;75.20
76613;DHT22;65507;48.454;-2.058;2023-07-30T03:18:19;16.10;75.20
76613;DHT22;65507;48.454;-2.058;2023-07-30T03:20:44;16.10;75.20
76613;DHT22;65507;48.454;-2.058;2023-07-30T03:23:10;16.10;75.30
76613;DHT22;65507;48.454;-2.058;2023-07-30T03:25:35;16.10;75.30
76613;DHT22;65507;48.454;-2.058;2023-07-30T03:28:01;16.10;75.50
76613;DHT22;65507;48.454;-2.058;2023-07-30T03:30:26;16.00;75.50
76613;DHT22;65507;48.454;-2.058;2023-07-30T03:32:52;16.00;75.70
76613;DHT22;65507;48.454;-2.058;2023-07-30T03:35:18;16.00;75.70
76613;DHT22;65507;48.454;-2.058;2023-07-30T03:37:44;15.90;75.80
76613;DHT22;65507;48.454;-2.058;2023-07-30T03:40:09;15.90;76.60
76613;DHT22;65507;48.454;-2.058;2023-07-30T03:42:35;15.80;75.60
76613;DHT22;65507;48.454;-2.058;2023-07-30T03:45:01;15.80;75.60
76613;DHT22;65507;48.454;-2.058;2023-07-30T03:47:26;15.80;75.70
76613;DHT22;65507;48.454;-2.058;2023-07-30T03:49:52;15.80;75.70
76613;DHT22;65507;48.454;-2.058;2023-07-30T03:52:17;15.80;75.70
76613;DHT22;65507;48.454;-2.058;2023-07-30T03:54:43;15.80;75.70
76613;DHT22;65507;48.454;-2.058;2023-07-30T03:57:08;15.80;75.70
76613;DHT22;65507;48.454;-2.058;2023-07-30T03:59:34;15.90;75.70
76613;DHT22;65507;48.454;-2.058;2023-07-30T04:01:59;15.90;75.80
76613;DHT22;65507;48.454;-2.058;2023-07-30T04:04:25;15.90;75.60
76613;DHT22;65507;48.454;-2.058;2023-07-30T04:06:50;15.90;75.50
76613;DHT22;65507;48.454;-2.058;2023-07-30T04:09:16;16.00;75.50
76613;DHT22;65507;48.454;-2.058;2023-07-30T04:11:41;16.00;75.40
76613;DHT22;65507;48.454;-2.058;2023-07-30T04:14:07;16.00;75.30
76613;DHT22;65507;48.454;-2.058;2023-07-30T04:16:34;16.10;75.40
76613;DHT22;65507;48.454;-2.058;2023-07-30T04:18:59;16.10;75.40
76613;DHT22;65507;48.454;-2.058;2023-07-30T04:21:25;16.10;75.30
76613;DHT22;65507;48.454;-2.058;2023-07-30T04:23:50;16.10;75.40
76613;DHT22;65507;48.454;-2.058;2023-07-30T04:26:16;16.10;75.20
76613;DHT22;65507;48.454;-2.058;2023-07-30T04:28:42;16.10;75.40
76613;DHT22;65507;48.454;-2.058;2023-07-30T04:31:07;16.10;75.30
76613;DHT22;65507;48.454;-2.058;2023-07-30T04:33:33;16.10;75.40
76613;DHT22;65507;48.454;-2.058;2023-07-30T04:35:58;16.10;75.50
76613;DHT22;65507;48.454;-2.058;2023-07-30T04:38:24;16.00;75.60
76613;DHT22;65507;48.454;-2.058;2023-07-30T04:40:49;16.00;75.70
76613;DHT22;65507;48.454;-2.058;2023-07-30T04:43:15;16.00;75.70
76613;DHT22;65507;48.454;-2.058;2023-07-30T04:45:41;15.90;75.70
76613;DHT22;65507;48.454;-2.058;2023-07-30T04:48:07;15.90;75.80
76613;DHT22;65507;48.454;-2.058;2023-07-30T04:50:33;15.90;75.80
76613;DHT22;65507;48.454;-2.058;2023-07-30T04:52:58;15.90;75.90
76613;DHT22;65507;48.454;-2.058;2023-07-30T04:55:24;15.90;75.90
76613;DHT22;65507;48.454;-2.058;2023-07-30T04:57:49;15.90;75.90
76613;DHT22;65507;48.454;-2.058;2023-07-30T05:00:15;15.90;75.90
76613;DHT22;65507;48.454;-2.058;2023-07-30T05:02:40;16.00;76.00
76613;DHT22;65507;48.454;-2.058;2023-07-30T05:05:06;16.00;75.60
76613;DHT22;65507;48.454;-2.058;2023-07-30T05:07:31;16.00;75.60
76613;DHT22;65507;48.454;-2.058;2023-07-30T05:09:57;16.00;75.60
76613;DHT22;65507;48.454;-2.058;2023-07-30T05:12:22;16.00;76.50
76613;DHT22;65507;48.454;-2.058;2023-07-30T05:14:48;16.00;75.50
76613;DHT22;65507;48.454;-2.058;2023-07-30T05:17:14;16.10;75.60
76613;DHT22;65507;48.454;-2.058;2023-07-30T05:19:39;16.10;75.40
76613;DHT22;65507;48.454;-2.058;2023-07-30T05:22:05;16.10;75.50
76613;DHT22;65507;48.454;-2.058;2023-07-30T05:24:33;16.10;75.40
76613;DHT22;65507;48.454;-2.058;2023-07-30T05:26:59;16.20;75.20
76613;DHT22;65507;48.454;-2.058;2023-07-30T05:29:24;16.20;75.20
76613;DHT22;65507;48.454;-2.058;2023-07-30T05:31:50;16.30;75.10
76613;DHT22;65507;48.454;-2.058;2023-07-30T05:34:15;16.30;75.10
76613;DHT22;65507;48.454;-2.058;2023-07-30T05:36:41;16.30;75.10
76613;DHT22;65507;48.454;-2.058;2023-07-30T05:39:06;16.30;75.20
76613;DHT22;65507;48.454;-2.058;2023-07-30T05:41:32;16.40;75.10
76613;DHT22;65507;48.454;-2.058;2023-07-30T05:43:57;16.40;75.00
76613;DHT22;65507;48.454;-2.058;2023-07-30T05:46:23;16.40;75.00
76613;DHT22;65507;48.454;-2.058;2023-07-30T05:48:48;16.50;75.00
76613;DHT22;65507;48.454;-2.058;2023-07-30T05:51:14;16.50;75.00
76613;DHT22;65507;48.454;-2.058;2023-07-30T05:53:39;16.50;75.00
76613;DHT22;65507;48.454;-2.058;2023-07-30T05:56:05;16.60;74.80
76613;DHT22;65507;48.454;-2.058;2023-07-30T05:58:30;16.60;74.80
76613;DHT22;65507;48.454;-2.058;2023-07-30T06:00:56;16.60;74.90
76613;DHT22;65507;48.454;-2.058;2023-07-30T06:03:22;16.60;75.00
76613;DHT22;65507;48.454;-2.058;2023-07-30T06:05:47;16.70;75.10
76613;DHT22;65507;48.454;-2.058;2023-07-30T06:08:13;16.70;74.90
76613;DHT22;65507;48.454;-2.058;2023-07-30T06:10:38;16.80;74.70
76613;DHT22;65507;48.454;-2.058;2023-07-30T06:13:05;16.90;74.60
76613;DHT22;65507;48.454;-2.058;2023-07-30T06:15:31;17.00;74.30
76613;DHT22;65507;48.454;-2.058;2023-07-30T06:17:57;17.10;74.00
76613;DHT22;65507;48.454;-2.058;2023-07-30T06:20:23;17.30;73.80
76613;DHT22;65507;48.454;-2.058;2023-07-30T06:22:48;17.40;73.50
76613;DHT22;65507;48.454;-2.058;2023-07-30T06:25:14;17.40;73.50
76613;DHT22;65507;48.454;-2.058;2023-07-30T06:27:39;17.50;73.80
76613;DHT22;65507;48.454;-2.058;2023-07-30T06:30:05;17.50;73.70
76613;DHT22;65507;48.454;-2.058;2023-07-30T06:32:30;17.50;73.70
76613;DHT22;65507;48.454;-2.058;2023-07-30T06:34:56;17.50;73.70
76613;DHT22;65507;48.454;-2.058;2023-07-30T06:37:21;17.60;73.70
76613;DHT22;65507;48.454;-2.058;2023-07-30T06:39:47;17.70;73.50
76613;DHT22;65507;48.454;-2.058;2023-07-30T06:42:13;17.70;73.40
76613;DHT22;65507;48.454;-2.058;2023-07-30T06:44:38;17.80;73.30
76613;DHT22;65507;48.454;-2.058;2023-07-30T06:47:04;17.90;73.20
76613;DHT22;65507;48.454;-2.058;2023-07-30T06:49:29;18.00;73.00
76613;DHT22;65507;48.454;-2.058;2023-07-30T06:51:55;18.10;72.80
76613;DHT22;65507;48.454;-2.058;2023-07-30T06:54:20;18.20;72.80
76613;DHT22;65507;48.454;-2.058;2023-07-30T06:56:46;18.20;72.70
76613;DHT22;65507;48.454;-2.058;2023-07-30T06:59:11;18.30;72.80
76613;DHT22;65507;48.454;-2.058;2023-07-30T07:01:37;18.40;72.80
76613;DHT22;65507;48.454;-2.058;2023-07-30T07:04:02;18.50;72.60
76613;DHT22;65507;48.454;-2.058;2023-07-30T07:06:28;18.50;72.60
76613;DHT22;65507;48.454;-2.058;2023-07-30T07:08:53;18.60;72.40
76613;DHT22;65507;48.454;-2.058;2023-07-30T07:11:19;18.70;72.30
76613;DHT22;65507;48.454;-2.058;2023-07-30T07:13:44;18.80;72.30
76613;DHT22;65507;48.454;-2.058;2023-07-30T07:16:10;18.80;72.50
76613;DHT22;65507;48.454;-2.058;2023-07-30T07:18:35;18.90;72.20
76613;DHT22;65507;48.454;-2.058;2023-07-30T07:21:01;18.90;72.20
76613;DHT22;65507;48.454;-2.058;2023-07-30T07:23:26;19.00;72.20
76613;DHT22;65507;48.454;-2.058;2023-07-30T07:25:52;19.10;72.20
76613;DHT22;65507;48.454;-2.058;2023-07-30T07:28:18;19.10;72.20
76613;DHT22;65507;48.454;-2.058;2023-07-30T07:30:44;19.10;72.20
76613;DHT22;65507;48.454;-2.058;2023-07-30T07:33:10;19.20;72.20
76613;DHT22;65507;48.454;-2.058;2023-07-30T07:35:38;19.20;72.30
76613;DHT22;65507;48.454;-2.058;2023-07-30T07:38:04;19.20;72.40
76613;DHT22;65507;48.454;-2.058;2023-07-30T07:40:29;19.30;72.30
76613;DHT22;65507;48.454;-2.058;2023-07-30T07:42:55;19.40;72.10
76613;DHT22;65507;48.454;-2.058;2023-07-30T07:45:21;19.50;72.10
76613;DHT22;65507;48.454;-2.058;2023-07-30T07:47:46;19.60;71.90
76613;DHT22;65507;48.454;-2.058;2023-07-30T07:50:12;19.70;71.70
76613;DHT22;65507;48.454;-2.058;2023-07-30T07:52:37;19.80;71.70
76613;DHT22;65507;48.454;-2.058;2023-07-30T07:55:03;19.90;71.60
76613;DHT22;65507;48.454;-2.058;2023-07-30T07:57:29;20.00;71.30
76613;DHT22;65507;48.454;-2.058;2023-07-30T07:59:55;20.10;71.30
76613;DHT22;65507;48.454;-2.058;2023-07-30T08:02:21;20.00;71.20
76613;DHT22;65507;48.454;-2.058;2023-07-30T08:04:47;19.90;71.70
76613;DHT22;65507;48.454;-2.058;2023-07-30T08:07:12;19.80;72.50
76613;DHT22;65507;48.454;-2.058;2023-07-30T08:09:41;19.70;73.50
76613;DHT22;65507;48.454;-2.058;2023-07-30T08:12:06;19.80;72.50
76613;DHT22;65507;48.454;-2.058;2023-07-30T08:14:32;19.80;72.50
76613;DHT22;65507;48.454;-2.058;2023-07-30T08:16:57;19.80;72.40
76613;DHT22;65507;48.454;-2.058;2023-07-30T08:19:23;19.80;72.50
76613;DHT22;65507;48.454;-2.058;2023-07-30T08:21:52;19.80;72.40
76613;DHT22;65507;48.454;-2.058;2023-07-30T08:24:18;19.80;72.40
76613;DHT22;65507;48.454;-2.058;2023-07-30T08:26:43;19.90;72.30
76613;DHT22;65507;48.454;-2.058;2023-07-30T08:29:09;20.00;72.40
76613;DHT22;65507;48.454;-2.058;2023-07-30T08:31:38;20.00;72.40
76613;DHT22;65507;48.454;-2.058;2023-07-30T08:34:03;20.10;72.50
76613;DHT22;65507;48.454;-2.058;2023-07-30T08:36:29;20.10;72.20
76613;DHT22;65507;48.454;-2.058;2023-07-30T08:38:55;20.10;72.40
76613;DHT22;65507;48.454;-2.058;2023-07-30T08:41:20;20.00;72.30
76613;DHT22;65507;48.454;-2.058;2023-07-30T08:43:46;20.10;72.40
76613;DHT22;65507;48.454;-2.058;2023-07-30T08:46:14;20.10;72.40
76613;DHT22;65507;48.454;-2.058;2023-07-30T08:48:40;20.20;72.30
76613;DHT22;65507;48.454;-2.058;2023-07-30T08:51:06;20.20;72.10
76613;DHT22;65507;48.454;-2.058;2023-07-30T08:53:31;20.30;72.10
76613;DHT22;65507;48.454;-2.058;2023-07-30T08:55:57;20.30;72.10
76613;DHT22;65507;48.454;-2.058;2023-07-30T08:58:23;20.30;72.10
76613;DHT22;65507;48.454;-2.058;2023-07-30T09:00:50;20.30;72.10
76613;DHT22;65507;48.454;-2.058;2023-07-30T09:03:16;20.40;72.10
76613;DHT22;65507;48.454;-2.058;2023-07-30T09:05:43;20.50;72.00
76613;DHT22;65507;48.454;-2.058;2023-07-30T09:08:08;20.50;71.80
76613;DHT22;65507;48.454;-2.058;2023-07-30T09:10:35;20.50;71.90
76613;DHT22;65507;48.454;-2.058;2023-07-30T09:13:01;20.50;72.10
76613;DHT22;65507;48.454;-2.058;2023-07-30T09:15:30;20.50;72.00
76613;DHT22;65507;48.454;-2.058;2023-07-30T09:17:57;20.60;71.90
76613;DHT22;65507;48.454;-2.058;2023-07-30T09:20:23;20.60;71.90
76613;DHT22;65507;48.454;-2.058;2023-07-30T09:22:48;20.60;72.10
76613;DHT22;65507;48.454;-2.058;2023-07-30T09:25:17;20.60;72.00
76613;DHT22;65507;48.454;-2.058;2023-07-30T09:27:47;20.70;71.90
76613;DHT22;65507;48.454;-2.058;2023-07-30T09:30:12;20.70;71.80
76613;DHT22;65507;48.454;-2.058;2023-07-30T09:32:38;20.70;71.90
76613;DHT22;65507;48.454;-2.058;2023-07-30T09:35:07;20.70;71.90
76613;DHT22;65507;48.454;-2.058;2023-07-30T09:37:33;20.70;71.90
76613;DHT22;65507;48.454;-2.058;2023-07-30T09:40:01;20.70;71.90
76613;DHT22;65507;48.454;-2.058;2023-07-30T09:42:26;20.80;71.80
76613;DHT22;65507;48.454;-2.058;2023-07-30T09:44:52;20.90;71.60
76613;DHT22;65507;48.454;-2.058;2023-07-30T09:47:18;21.00;71.50
76613;DHT22;65507;48.454;-2.058;2023-07-30T09:49:43;21.10;71.20
76613;DHT22;65507;48.454;-2.058;2023-07-30T09:52:09;21.20;70.90
76613;DHT22;65507;48.454;-2.058;2023-07-30T09:54:35;21.30;70.80
76613;DHT22;65507;48.454;-2.058;2023-07-30T09:57:02;21.40;70.80
76613;DHT22;65507;48.454;-2.058;2023-07-30T09:59:29;21.40;70.80
76613;DHT22;65507;48.454;-2.058;2023-07-30T10:01:55;21.40;70.90
76613;DHT22;65507;48.454;-2.058;2023-07-30T10:04:22;21.40;70.90
76613;DHT22;65507;48.454;-2.058;2023-07-30T10:06:53;21.40;70.80
76613;DHT22;65507;48.454;-2.058;2023-07-30T10:09:20;21.60;70.70
76613;DHT22;65507;48.454;-2.058;2023-07-30T10:11:46;21.60;70.50
76613;DHT22;65507;48.454;-2.058;2023-07-30T10:14:13;21.70;70.40
76613;DHT22;65507;48.454;-2.058;2023-07-30T10:16:39;21.70;70.30
76613;DHT22;65507;48.454;-2.058;2023-07-30T10:19:14;21.80;70.20
76613;DHT22;65507;48.454;-2.058;2023-07-30T10:21:41;21.90;70.10
76613;DHT22;65507;48.454;-2.058;2023-07-30T10:24:07;22.00;70.00
76613;DHT22;65507;48.454;-2.058;2023-07-30T10:26:35;22.00;69.90
76613;DHT22;65507;48.454;-2.058;2023-07-30T10:29:20;22.00;70.10
76613;DHT22;65507;48.454;-2.058;2023-07-30T10:31:51;22.10;70.10
76613;DHT22;65507;48.454;-2.058;2023-07-30T10:34:17;22.20;69.80
76613;DHT22;65507;48.454;-2.058;2023-07-30T10:36:44;22.40;69.60
76613;DHT22;65507;48.454;-2.058;2023-07-30T10:39:14;22.40;69.50
76613;DHT22;65507;48.454;-2.058;2023-07-30T10:41:39;22.50;69.40
76613;DHT22;65507;48.454;-2.058;2023-07-30T10:44:05;22.50;69.40
76613;DHT22;65507;48.454;-2.058;2023-07-30T10:46:31;22.60;69.40
76613;DHT22;65507;48.454;-2.058;2023-07-30T10:48:57;22.70;69.20
76613;DHT22;65507;48.454;-2.058;2023-07-30T10:51:23;22.70;69.30
76613;DHT22;65507;48.454;-2.058;2023-07-30T10:53:50;22.80;69.40
76613;DHT22;65507;48.454;-2.058;2023-07-30T10:56:16;22.70;69.40
76613;DHT22;65507;48.454;-2.058;2023-07-30T10:58:42;22.70;69.60
76613;DHT22;65507;48.454;-2.058;2023-07-30T11:01:08;22.60;69.80
76613;DHT22;65507;48.454;-2.058;2023-07-30T11:03:34;22.60;69.90
76613;DHT22;65507;48.454;-2.058;2023-07-30T11:06:00;22.50;70.20
76613;DHT22;65507;48.454;-2.058;2023-07-30T11:08:59;22.40;70.40
76613;DHT22;65507;48.454;-2.058;2023-07-30T11:11:17;22.40;70.50
76613;DHT22;65507;48.454;-2.058;2023-07-30T11:13:44;22.50;70.50
76613;DHT22;65507;48.454;-2.058;2023-07-30T11:16:11;22.50;70.40
76613;DHT22;65507;48.454;-2.058;2023-07-30T11:18:37;22.50;70.50
76613;DHT22;65507;48.454;-2.058;2023-07-30T11:21:07;22.40;70.70
76613;DHT22;65507;48.454;-2.058;2023-07-30T11:23:33;22.30;71.10
76613;DHT22;65507;48.454;-2.058;2023-07-30T11:26:00;22.20;71.40
76613;DHT22;65507;48.454;-2.058;2023-07-30T11:28:29;22.10;71.50
76613;DHT22;65507;48.454;-2.058;2023-07-30T11:30:59;22.10;71.60
76613;DHT22;65507;48.454;-2.058;2023-07-30T11:33:26;22.20;71.50
76613;DHT22;65507;48.454;-2.058;2023-07-30T11:35:51;22.30;71.40
76613;DHT22;65507;48.454;-2.058;2023-07-30T11:38:17;22.30;71.30
76613;DHT22;65507;48.454;-2.058;2023-07-30T11:40:45;22.50;71.10
76613;DHT22;65507;48.454;-2.058;2023-07-30T11:43:11;22.60;70.70
76613;DHT22;65507;48.454;-2.058;2023-07-30T11:45:37;22.70;70.50
76613;DHT22;65507;48.454;-2.058;2023-07-30T11:48:06;22.70;70.40
76613;DHT22;65507;48.454;-2.058;2023-07-30T11:53:51;22.70;70.40
76613;DHT22;65507;48.454;-2.058;2023-07-30T11:56:17;22.70;70.50
76613;DHT22;65507;48.454;-2.058;2023-07-30T11:58:43;22.70;70.50
76613;DHT22;65507;48.454;-2.058;2023-07-30T12:01:09;22.70;70.50
76613;DHT22;65507;48.454;-2.058;2023-07-30T12:03:35;22.60;70.60
76613;DHT22;65507;48.454;-2.058;2023-07-30T12:06:04;22.50;70.90
76613;DHT22;65507;48.454;-2.058;2023-07-30T12:08:30;22.30;71.20
76613;DHT22;65507;48.454;-2.058;2023-07-30T12:10:55;22.10;71.60
76613;DHT22;65507;48.454;-2.058;2023-07-30T12:13:22;22.10;71.90
76613;DHT22;65507;48.454;-2.058;2023-07-30T12:15:53;22.10;71.80
76613;DHT22;65507;48.454;-2.058;2023-07-30T12:18:19;22.10;71.70
76613;DHT22;65507;48.454;-2.058;2023-07-30T12:20:46;22.20;71.50
76613;DHT22;65507;48.454;-2.058;2023-07-30T12:23:11;22.30;71.20
76613;DHT22;65507;48.454;-2.058;2023-07-30T12:25:37;22.40;71.00
76613;DHT22;65507;48.454;-2.058;2023-07-30T12:28:03;22.50;70.80
76613;DHT22;65507;48.454;-2.058;2023-07-30T12:30:28;22.60;70.70
76613;DHT22;65507;48.454;-2.058;2023-07-30T12:32:54;22.60;70.70
76613;DHT22;65507;48.454;-2.058;2023-07-30T12:35:20;22.60;70.70
76613;DHT22;65507;48.454;-2.058;2023-07-30T12:37:45;22.60;70.70
76613;DHT22;65507;48.454;-2.058;2023-07-30T12:40:11;22.50;70.90
76613;DHT22;65507;48.454;-2.058;2023-07-30T12:42:37;22.40;71.30
76613;DHT22;65507;48.454;-2.058;2023-07-30T12:45:02;22.20;71.60
76613;DHT22;65507;48.454;-2.058;2023-07-30T12:47:28;22.00;72.10
76613;DHT22;65507;48.454;-2.058;2023-07-30T12:49:54;21.80;72.50
76613;DHT22;65507;48.454;-2.058;2023-07-30T12:52:19;21.80;72.60
76613;DHT22;65507;48.454;-2.058;2023-07-30T12:54:45;21.80;72.50
76613;DHT22;65507;48.454;-2.058;2023-07-30T12:57:10;21.90;72.40
76613;DHT22;65507;48.454;-2.058;2023-07-30T12:59:36;22.00;72.10
76613;DHT22;65507;48.454;-2.058;2023-07-30T13:02:01;22.10;71.90
76613;DHT22;65507;48.454;-2.058;2023-07-30T13:04:27;22.20;71.80
76613;DHT22;65507;48.454;-2.058;2023-07-30T13:06:53;22.20;71.50
76613;DHT22;65507;48.454;-2.058;2023-07-30T13:09:18;22.30;71.40
76613;DHT22;65507;48.454;-2.058;2023-07-30T13:11:44;22.40;71.20
76613;DHT22;65507;48.454;-2.058;2023-07-30T13:14:10;22.50;71.20
76613;DHT22;65507;48.454;-2.058;2023-07-30T13:16:35;22.40;71.20
76613;DHT22;65507;48.454;-2.058;2023-07-30T13:19:01;22.30;71.40
76613;DHT22;65507;48.454;-2.058;2023-07-30T13:21:26;22.30;71.50
76613;DHT22;65507;48.454;-2.058;2023-07-30T13:23:52;22.40;71.30
76613;DHT22;65507;48.454;-2.058;2023-07-30T13:26:17;22.50;71.20
76613;DHT22;65507;48.454;-2.058;2023-07-30T13:28:44;22.50;71.00
76613;DHT22;65507;48.454;-2.058;2023-07-30T13:31:10;22.60;70.90
76613;DHT22;65507;48.454;-2.058;2023-07-30T13:33:36;22.50;70.80
76613;DHT22;65507;48.454;-2.058;2023-07-30T13:36:02;22.50;70.90
76613;DHT22;65507;48.454;-2.058;2023-07-30T13:38:29;22.40;71.00
76613;DHT22;65507;48.454;-2.058;2023-07-30T13:40:55;22.50;70.90
76613;DHT22;65507;48.454;-2.058;2023-07-30T13:43:20;22.60;70.70
76613;DHT22;65507;48.454;-2.058;2023-07-30T13:45:46;22.70;70.50
76613;DHT22;65507;48.454;-2.058;2023-07-30T13:48:15;22.80;70.10
76613;DHT22;65507;48.454;-2.058;2023-07-30T13:50:41;23.00;69.90
76613;DHT22;65507;48.454;-2.058;2023-07-30T13:53:07;23.10;69.60
76613;DHT22;65507;48.454;-2.058;2023-07-30T13:55:32;23.20;69.40
76613;DHT22;65507;48.454;-2.058;2023-07-30T13:57:58;23.30;69.20
76613;DHT22;65507;48.454;-2.058;2023-07-30T14:00:23;23.50;69.00
76613;DHT22;65507;48.454;-2.058;2023-07-30T14:02:49;23.50;68.90
76613;DHT22;65507;48.454;-2.058;2023-07-30T14:05:16;23.50;69.00
76613;DHT22;65507;48.454;-2.058;2023-07-30T14:07:41;23.50;69.00
76613;DHT22;65507;48.454;-2.058;2023-07-30T14:10:07;23.60;69.10
76613;DHT22;65507;48.454;-2.058;2023-07-30T14:12:32;23.60;69.20
76613;DHT22;65507;48.454;-2.058;2023-07-30T14:14:58;23.60;69.20
76613;DHT22;65507;48.454;-2.058;2023-07-30T14:17:23;23.60;69.30
76613;DHT22;65507;48.454;-2.058;2023-07-30T14:19:49;23.40;69.50
76613;DHT22;65507;48.454;-2.058;2023-07-30T14:22:14;23.30;70.00
76613;DHT22;65507;48.454;-2.058;2023-07-30T14:24:40;23.20;70.10
76613;DHT22;65507;48.454;-2.058;2023-07-30T14:27:08;23.10;70.30
76613;DHT22;65507;48.454;-2.058;2023-07-30T14:29:34;23.00;70.50
76613;DHT22;65507;48.454;-2.058;2023-07-30T14:32:00;22.80;70.80
76613;DHT22;65507;48.454;-2.058;2023-07-30T14:34:25;22.60;71.20
76613;DHT22;65507;48.454;-2.058;2023-07-30T14:36:51;22.40;71.70
76613;DHT22;65507;48.454;-2.058;2023-07-30T14:39:16;22.20;72.10
76613;DHT22;65507;48.454;-2.058;2023-07-30T14:41:42;22.20;72.10
76613;DHT22;65507;48.454;-2.058;2023-07-30T14:44:07;22.20;72.10
76613;DHT22;65507;48.454;-2.058;2023-07-30T14:46:33;22.20;72.10
76613;DHT22;65507;48.454;-2.058;2023-07-30T14:48:58;22.20;72.00
76613;DHT22;65507;48.454;-2.058;2023-07-30T14:51:24;22.30;71.70
76613;DHT22;65507;48.454;-2.058;2023-07-30T14:53:50;22.40;71.40
76613;DHT22;65507;48.454;-2.058;2023-07-30T14:56:15;22.50;71.10
76613;DHT22;65507;48.454;-2.058;2023-07-30T14:58:41;22.50;71.00
76613;DHT22;65507;48.454;-2.058;2023-07-30T15:01:06;22.50;71.00
76613;DHT22;65507;48.454;-2.058;2023-07-30T15:03:32;22.50;70.90
76613;DHT22;65507;48.454;-2.058;2023-07-30T15:06:00;22.50;70.90
76613;DHT22;65507;48.454;-2.058;2023-07-30T15:08:26;22.50;70.90
76613;DHT22;65507;48.454;-2.058;2023-07-30T15:10:53;22.40;71.00